createdAt,value
2023-02-20T00:00:13.778Z,26.72
2023-02-20T00:01:13.873Z,26.70
2023-02-20T00:02:13.686Z,26.72
2023-02-20T00:03:13.651Z,26.70
2023-02-20T00:04:13.499Z,26.70
2023-02-20T00:05:13.423Z,26.70
2023-02-20T00:06:13.773Z,26.69
2023-02-20T00:07:13.290Z,26.70
2023-02-20T00:08:13.218Z,26.67
2023-02-20T00:09:13.156Z,26.73
2023-02-20T00:10:13.056Z,26.67
2023-02-20T00:12:12.911Z,26.67
2023-02-20T00:13:12.860Z,26.66
2023-02-20T00:14:12.761Z,26.64
2023-02-20T00:15:12.710Z,26.64
2023-02-20T00:16:12.940Z,26.66
2023-02-20T00:17:12.574Z,26.64
2023-02-20T00:18:12.501Z,26.67
2023-02-20T00:19:12.443Z,26.64
2023-02-20T00:20:12.348Z,26.63
2023-02-20T00:21:12.277Z,26.66
2023-02-20T00:22:12.241Z,26.64
2023-02-20T00:23:12.150Z,26.60
2023-02-20T00:24:12.086Z,26.60
2023-02-20T00:25:12.057Z,26.62
2023-02-20T00:26:12.476Z,26.59
2023-02-20T00:27:11.879Z,26.60
2023-02-20T00:28:11.827Z,26.60
2023-02-20T00:29:11.749Z,26.60
2023-02-20T00:30:11.712Z,26.60
2023-02-20T00:31:11.660Z,26.60
2023-02-20T00:32:11.559Z,26.62
2023-02-20T00:33:11.478Z,26.60
2023-02-20T00:34:11.399Z,26.58
2023-02-20T00:35:11.345Z,26.62
2023-02-20T00:36:11.446Z,26.63
2023-02-20T01:21:08.205Z,26.49
2023-02-20T01:22:08.163Z,26.48
2023-02-20T01:23:08.067Z,26.46
2023-02-20T01:24:08.039Z,26.43
2023-02-20T01:25:07.957Z,26.46
2023-02-20T01:26:07.877Z,26.49
2023-02-20T02:03:05.380Z,26.39
2023-02-20T02:04:05.340Z,26.38
2023-02-20T02:05:05.252Z,26.38
2023-02-20T02:06:05.174Z,26.35
2023-02-20T02:07:05.116Z,26.42
2023-02-20T02:08:05.042Z,26.38
2023-02-20T02:09:04.964Z,26.35
2023-02-20T02:10:04.904Z,26.35
2023-02-20T02:11:04.837Z,26.39
2023-02-20T02:12:04.783Z,26.39
2023-02-20T02:13:04.704Z,26.39
2023-02-20T02:14:04.623Z,26.41
2023-02-20T02:15:04.590Z,26.38
2023-02-20T02:16:04.534Z,26.39
2023-02-20T02:17:04.430Z,26.39
2023-02-20T02:18:04.375Z,26.36
2023-02-20T02:19:04.302Z,26.36
2023-02-20T02:20:04.209Z,26.39
2023-02-20T02:21:04.151Z,26.39
2023-02-20T02:22:04.115Z,26.39
2023-02-20T02:23:04.026Z,26.36
2023-02-20T02:24:03.969Z,26.35
2023-02-20T02:25:03.905Z,26.35
2023-02-20T02:26:03.834Z,26.32
2023-02-20T02:27:03.771Z,26.36
2023-02-20T02:28:03.680Z,26.31
2023-02-20T02:29:03.656Z,26.35
2023-02-20T02:30:03.656Z,26.34
2023-02-20T02:31:03.545Z,26.36
2023-02-20T02:32:03.505Z,26.32
2023-02-20T02:33:03.374Z,26.35
2023-02-20T02:34:03.301Z,26.39
2023-02-20T02:35:03.221Z,26.34
2023-02-20T02:36:03.182Z,26.35
2023-02-20T02:37:03.098Z,26.32
2023-02-20T02:38:03.048Z,26.34
2023-02-20T02:39:02.953Z,26.32
2023-02-20T02:40:02.893Z,26.30
2023-02-20T02:41:02.833Z,26.25
2023-02-20T02:42:02.749Z,26.24
2023-02-20T02:43:02.677Z,26.28
2023-02-20T02:44:02.608Z,26.21
2023-02-20T02:45:02.590Z,26.14
2023-02-20T02:46:02.550Z,26.11
2023-02-20T02:47:02.431Z,26.04
2023-02-20T02:48:02.374Z,25.96
2023-02-20T02:49:02.350Z,25.87
2023-02-20T02:50:02.249Z,25.79
2023-02-20T02:51:02.212Z,25.77
2023-02-20T02:52:02.148Z,25.75
2023-02-20T02:53:02.131Z,25.69
2023-02-20T02:54:02.020Z,25.70
2023-02-20T02:55:01.986Z,25.68
2023-02-20T02:56:01.928Z,25.69
2023-02-20T02:57:02.532Z,25.76
2023-02-20T02:58:01.791Z,25.76
2023-02-20T02:59:01.753Z,25.75
2023-02-20T03:00:01.716Z,25.75
2023-02-20T03:01:01.619Z,25.68
2023-02-20T03:02:01.548Z,25.75
2023-02-20T03:03:01.466Z,25.81
2023-02-20T03:04:01.389Z,25.75
2023-02-20T03:05:01.359Z,25.70
2023-02-20T03:06:01.259Z,25.77
2023-02-20T04:51:54.045Z,25.24
2023-02-20T04:52:53.961Z,25.33
2023-02-20T04:53:53.922Z,25.29
2023-02-20T04:54:53.831Z,25.31
2023-02-20T04:55:53.776Z,25.24
2023-02-20T04:56:53.697Z,25.18
2023-02-20T04:57:53.653Z,25.31
2023-02-20T04:58:53.582Z,25.32
2023-02-20T04:59:53.529Z,25.32
2023-02-20T05:00:53.429Z,25.29
2023-02-20T05:01:53.369Z,25.31
2023-02-20T05:02:53.368Z,25.28
2023-02-20T05:03:53.274Z,25.28
2023-02-20T05:04:53.226Z,25.28
2023-02-20T05:05:53.123Z,25.31
2023-02-20T05:06:53.041Z,25.25
2023-02-20T05:07:52.990Z,25.21
2023-02-20T05:08:52.933Z,25.22
2023-02-20T05:09:52.858Z,25.19
2023-02-20T05:10:52.824Z,25.19
2023-02-20T05:11:52.744Z,25.14
2023-02-20T05:12:52.718Z,25.22
2023-02-20T05:13:52.627Z,25.28
2023-02-20T05:14:53.298Z,25.26
2023-02-20T05:15:52.484Z,25.22
2023-02-20T05:16:52.466Z,25.17
2023-02-20T05:17:52.402Z,25.17
2023-02-20T05:18:52.292Z,25.26
2023-02-20T05:19:52.252Z,25.26
2023-02-20T05:20:52.151Z,25.15
2023-02-20T05:21:52.081Z,25.15
2023-02-20T05:22:52.065Z,25.19
2023-02-20T05:23:51.976Z,25.15
2023-02-20T05:24:51.919Z,25.15
2023-02-20T05:25:51.876Z,25.22
2023-02-20T05:26:51.791Z,25.15
2023-02-20T05:27:51.730Z,25.19
2023-02-20T05:28:51.692Z,25.14
2023-02-20T05:29:51.606Z,25.19
2023-02-20T05:30:51.553Z,25.24
2023-02-20T05:31:51.555Z,25.17
2023-02-20T05:32:51.425Z,25.13
2023-02-20T05:33:51.360Z,25.11
2023-02-20T05:34:51.382Z,25.14
2023-02-20T05:35:51.226Z,25.24
2023-02-20T05:40:51.614Z,25.14
2023-02-20T06:26:48.108Z,25.10
2023-02-20T06:27:48.015Z,25.14
2023-02-20T06:28:48.026Z,25.13
2023-02-20T06:29:47.905Z,25.19
2023-02-20T06:30:47.923Z,25.25
2023-02-20T06:31:48.173Z,25.25
2023-02-20T06:33:47.768Z,25.39
2023-02-20T06:34:47.614Z,25.35
2023-02-20T06:36:47.851Z,25.65
2023-02-20T06:37:47.399Z,25.73
2023-02-20T06:39:47.317Z,25.80
2023-02-20T06:40:47.248Z,25.83
2023-02-20T06:41:47.156Z,25.86
2023-02-20T06:42:47.084Z,25.93
2023-02-20T06:43:47.027Z,25.93
2023-02-20T06:44:46.993Z,25.93
2023-02-20T06:45:46.915Z,26.00
2023-02-20T06:46:46.935Z,25.90
2023-02-20T06:47:46.884Z,26.04
2023-02-20T06:48:46.921Z,26.04
2023-02-20T06:49:47.026Z,26.04
2023-02-20T06:50:47.288Z,26.05
2023-02-20T06:51:46.538Z,26.04
2023-02-20T06:55:47.642Z,26.13
2023-02-20T06:56:47.744Z,26.17
2023-02-20T07:05:47.659Z,26.24
2023-02-20T07:07:45.754Z,26.25
2023-02-20T07:08:47.148Z,26.17
2023-02-20T07:10:45.344Z,26.05
2023-02-20T07:11:45.547Z,25.98
2023-02-20T07:12:45.336Z,25.98
2023-02-20T07:13:46.188Z,25.93
2023-02-20T07:14:47.369Z,25.87
2023-02-20T07:15:46.891Z,25.86
2023-02-20T07:16:46.695Z,25.80
2023-02-20T07:17:45.851Z,25.77
2023-02-20T07:18:47.444Z,25.75
2023-02-20T07:19:47.117Z,25.75
2023-02-20T07:21:47.178Z,25.70
2023-02-20T07:25:52.694Z,25.63
2023-02-20T07:27:46.048Z,25.70
2023-02-20T07:28:45.988Z,25.66
2023-02-20T07:29:45.943Z,25.68
2023-02-20T07:30:47.880Z,25.66
2023-02-20T07:31:45.993Z,25.72
2023-02-20T07:32:46.829Z,25.73
2023-02-20T07:33:45.294Z,25.76
2023-02-20T07:34:54.640Z,25.81
2023-02-20T07:35:46.025Z,25.79
2023-02-20T07:36:46.286Z,25.86
2023-02-20T07:37:44.679Z,25.93
2023-02-20T07:38:44.870Z,25.97
2023-02-20T07:39:44.770Z,25.98
2023-02-20T07:40:44.149Z,25.94
2023-02-20T07:41:43.952Z,26.11
2023-02-20T07:42:44.061Z,26.14
2023-02-20T07:43:43.698Z,26.22
2023-02-20T07:44:44.058Z,26.24
2023-02-20T07:45:43.751Z,26.27
2023-02-20T07:46:45.143Z,26.08
2023-02-20T07:47:43.521Z,26.00
2023-02-20T07:48:43.504Z,25.83
2023-02-20T07:49:43.425Z,25.54
2023-02-20T07:50:43.598Z,25.45
2023-02-20T07:51:44.171Z,25.45
2023-02-20T07:52:43.323Z,25.39
2023-02-20T07:53:43.245Z,25.45
2023-02-20T07:54:43.247Z,25.50
2023-02-20T07:55:43.246Z,25.58
2023-02-20T07:56:43.146Z,25.62
2023-02-20T07:57:43.041Z,25.59
2023-02-20T07:58:43.135Z,25.54
2023-02-20T07:59:43.666Z,25.72
2023-02-20T08:00:42.914Z,25.80
2023-02-20T08:01:42.951Z,25.86
2023-02-20T08:02:42.810Z,25.83
2023-02-20T08:03:42.761Z,25.76
2023-02-20T08:04:43.637Z,25.58
2023-02-20T08:05:49.050Z,25.54
2023-02-20T08:06:43.648Z,25.59
2023-02-20T08:07:42.588Z,25.63
2023-02-20T08:08:42.546Z,25.70
2023-02-20T08:09:42.492Z,25.77
2023-02-20T08:10:42.431Z,25.77
2023-02-20T08:11:42.344Z,25.87
2023-02-20T08:12:42.258Z,25.90
2023-02-20T08:13:42.201Z,26.00
2023-02-20T08:16:45.818Z,26.14
2023-02-20T08:17:47.157Z,26.15
2023-02-20T08:19:43.545Z,26.22
2023-02-20T08:21:45.701Z,26.25
2023-02-20T08:22:42.439Z,26.36
2023-02-20T08:23:42.632Z,26.42
2023-02-20T08:24:42.645Z,26.46
2023-02-20T08:25:43.124Z,26.48
2023-02-20T08:27:41.564Z,26.58
2023-02-20T08:28:42.245Z,26.60
2023-02-20T08:29:41.452Z,26.55
2023-02-20T08:30:41.535Z,26.64
2023-02-20T08:31:41.392Z,26.69
2023-02-20T08:32:41.436Z,26.72
2023-02-20T08:33:41.220Z,26.76
2023-02-20T08:34:41.151Z,26.73
2023-02-20T08:35:41.108Z,26.76
2023-02-20T08:36:41.180Z,26.76
2023-02-20T08:37:41.042Z,26.63
2023-02-20T08:38:42.639Z,26.48
2023-02-20T08:39:41.144Z,26.42
2023-02-20T08:40:40.752Z,26.32
2023-02-20T08:41:40.872Z,26.25
2023-02-20T08:42:40.793Z,26.13
2023-02-20T08:43:40.598Z,26.18
2023-02-20T08:44:40.564Z,26.07
2023-02-20T08:45:40.634Z,26.20
2023-02-20T08:46:40.489Z,26.18
2023-02-20T08:47:40.422Z,26.24
2023-02-20T08:48:40.373Z,26.17
2023-02-20T08:49:40.298Z,26.14
2023-02-20T08:50:40.418Z,26.14
2023-02-20T08:51:40.306Z,26.22
2023-02-20T08:52:40.163Z,26.30
2023-02-20T08:53:40.239Z,26.38
2023-02-20T08:54:40.033Z,26.49
2023-02-20T08:55:39.952Z,26.56
2023-02-20T08:56:39.860Z,26.63
2023-02-20T08:57:39.888Z,26.67
2023-02-20T08:58:39.752Z,26.75
2023-02-20T08:59:39.673Z,26.77
2023-02-20T09:00:39.628Z,26.84
2023-02-20T09:01:39.755Z,26.86
2023-02-20T09:02:39.681Z,26.94
2023-02-20T09:03:39.377Z,26.96
2023-02-20T09:10:41.079Z,27.20
2023-02-20T09:11:41.682Z,27.24
2023-02-20T09:12:40.808Z,27.25
2023-02-20T09:13:42.654Z,27.28
2023-02-20T09:14:40.267Z,27.31
2023-02-20T09:15:40.792Z,27.32
2023-02-20T09:16:42.405Z,27.35
2023-02-20T09:17:40.942Z,27.39
2023-02-20T09:25:37.843Z,27.55
2023-02-20T09:26:37.792Z,27.59
2023-02-20T09:27:37.792Z,27.55
2023-02-20T09:29:37.563Z,27.55
2023-02-20T09:30:37.517Z,27.58
2023-02-20T09:31:37.567Z,27.56
2023-02-20T09:32:37.332Z,27.46
2023-02-20T09:33:37.236Z,27.37
2023-02-20T09:34:37.121Z,27.34
2023-02-20T09:35:37.027Z,27.25
2023-02-20T09:36:36.992Z,27.10
2023-02-20T09:37:36.940Z,27.07
2023-02-20T09:38:36.877Z,26.96
2023-02-20T09:39:36.761Z,26.87
2023-02-20T09:40:36.707Z,26.80
2023-02-20T09:41:36.612Z,26.73
2023-02-20T09:42:36.587Z,26.66
2023-02-20T09:43:36.496Z,26.63
2023-02-20T09:44:36.429Z,26.66
2023-02-20T09:45:36.410Z,26.63
2023-02-20T09:46:36.292Z,26.62
2023-02-20T09:47:36.276Z,26.55
2023-02-20T09:48:37.149Z,26.60
2023-02-20T09:49:36.127Z,26.64
2023-02-20T09:50:36.058Z,26.63
2023-02-20T09:51:36.001Z,26.72
2023-02-20T09:52:36.307Z,26.82
2023-02-20T09:53:35.866Z,26.80
2023-02-20T09:54:35.774Z,26.77
2023-02-20T09:55:35.745Z,26.63
2023-02-20T09:56:35.715Z,26.49
2023-02-20T09:57:35.690Z,26.38
2023-02-20T09:58:35.647Z,26.24
2023-02-20T09:59:35.699Z,26.20
2023-02-20T10:00:35.584Z,26.03
2023-02-20T10:01:35.663Z,25.86
2023-02-20T10:02:35.616Z,25.68
2023-02-20T10:03:35.695Z,25.63
2023-02-20T10:04:35.462Z,25.58
2023-02-20T10:05:35.430Z,25.49
2023-02-20T10:06:35.420Z,25.48
2023-02-20T10:07:35.483Z,25.43
2023-02-20T10:08:35.380Z,25.35
2023-02-20T10:09:35.419Z,25.21
2023-02-20T10:10:35.357Z,25.19
2023-02-20T10:11:35.326Z,25.08
2023-02-20T10:12:35.299Z,25.07
2023-02-20T10:13:35.316Z,25.04
2023-02-20T10:14:35.491Z,25.01
2023-02-20T10:15:35.220Z,25.07
2023-02-20T10:16:35.210Z,25.17
2023-02-20T10:17:36.121Z,25.24
2023-02-20T10:18:35.050Z,25.39
2023-02-20T10:19:35.690Z,25.49
2023-02-20T10:20:34.943Z,25.58
2023-02-20T10:21:34.864Z,25.69
2023-02-20T10:22:34.932Z,25.73
2023-02-20T10:23:34.740Z,25.80
2023-02-20T10:24:34.679Z,25.88
2023-02-20T10:25:34.609Z,26.04
2023-02-20T10:26:34.593Z,26.09
2023-02-20T10:27:35.242Z,26.22
2023-02-20T10:28:34.549Z,26.31
2023-02-20T10:29:34.366Z,26.35
2023-02-20T10:30:34.357Z,26.41
2023-02-20T10:31:34.360Z,26.52
2023-02-20T10:34:37.013Z,26.69
2023-02-20T10:35:33.943Z,26.69
2023-02-20T10:36:35.046Z,26.77
2023-02-20T10:37:46.679Z,26.82
2023-02-20T10:38:35.011Z,26.84
2023-02-20T10:39:34.103Z,26.90
2023-02-20T10:40:33.869Z,26.97
2023-02-20T10:41:33.762Z,27.01
2023-02-20T10:42:33.745Z,26.94
2023-02-20T10:43:33.679Z,27.01
2023-02-20T10:44:37.485Z,26.75
2023-02-20T10:45:34.496Z,26.64
2023-02-20T10:46:46.742Z,26.41
2023-02-20T10:47:34.401Z,26.05
2023-02-20T10:48:33.427Z,25.81
2023-02-20T10:49:34.367Z,25.63
2023-02-20T10:50:33.262Z,25.46
2023-02-20T10:51:33.214Z,25.21
2023-02-20T10:52:34.857Z,25.35
2023-02-20T10:53:33.139Z,25.38
2023-02-20T10:54:33.091Z,25.54
2023-02-20T10:55:33.048Z,25.72
2023-02-20T10:56:33.043Z,25.73
2023-02-20T10:57:32.947Z,25.79
2023-02-20T10:58:32.898Z,25.91
2023-02-20T10:59:32.834Z,25.93
2023-02-20T11:00:32.822Z,25.98
2023-02-20T11:01:32.889Z,25.97
2023-02-20T11:02:32.734Z,26.01
2023-02-20T11:03:32.637Z,26.00
2023-02-20T11:04:32.734Z,26.08
2023-02-20T11:05:34.270Z,26.22
2023-02-20T11:06:32.501Z,26.31
2023-02-20T11:07:32.396Z,26.38
2023-02-20T11:08:32.405Z,26.46
2023-02-20T11:09:32.514Z,26.56
2023-02-20T11:10:32.206Z,26.59
2023-02-20T11:11:32.166Z,26.69
2023-02-20T11:12:32.642Z,26.73
2023-02-20T11:13:32.302Z,26.80
2023-02-20T11:14:40.455Z,26.87
2023-02-20T11:15:33.695Z,26.90
2023-02-20T11:16:32.546Z,26.94
2023-02-20T11:17:31.869Z,26.91
2023-02-20T11:18:31.834Z,26.97
2023-02-20T11:19:32.812Z,26.91
2023-02-20T11:20:31.717Z,26.86
2023-02-20T11:21:31.625Z,26.69
2023-02-20T11:22:31.572Z,26.55
2023-02-20T11:23:31.531Z,26.32
2023-02-20T11:24:31.514Z,26.20
2023-02-20T11:25:31.446Z,26.07
2023-02-20T11:26:31.396Z,25.90
2023-02-20T11:27:31.315Z,25.76
2023-02-20T11:28:31.298Z,25.76
2023-02-20T11:29:31.333Z,25.63
2023-02-20T11:30:31.356Z,25.50
2023-02-20T11:31:31.290Z,25.52
2023-02-20T11:32:31.181Z,25.59
2023-02-20T11:33:31.185Z,25.66
2023-02-20T11:34:31.092Z,25.76
2023-02-20T11:35:31.709Z,25.88
2023-02-20T11:36:31.051Z,25.72
2023-02-20T11:37:30.953Z,25.75
2023-02-20T11:38:30.980Z,25.73
2023-02-20T11:39:30.855Z,25.70
2023-02-20T11:40:31.260Z,25.73
2023-02-20T11:41:30.766Z,25.81
2023-02-20T11:42:30.770Z,25.91
2023-02-20T11:43:30.696Z,26.07
2023-02-20T11:44:30.760Z,26.14
2023-02-20T11:45:30.583Z,26.08
2023-02-20T11:46:30.545Z,26.34
2023-02-20T11:47:30.429Z,26.38
2023-02-20T11:48:30.435Z,26.50
2023-02-20T11:49:30.328Z,26.58
2023-02-20T11:50:30.312Z,26.63
2023-02-20T11:51:30.183Z,26.69
2023-02-20T11:52:30.120Z,26.69
2023-02-20T11:53:30.085Z,26.82
2023-02-20T11:54:30.431Z,26.87
2023-02-20T11:55:29.948Z,26.87
2023-02-20T11:56:29.890Z,26.90
2023-02-20T11:57:29.850Z,26.94
2023-02-20T11:58:29.744Z,26.94
2023-02-20T11:59:29.655Z,27.01
2023-02-20T12:00:29.630Z,27.08
2023-02-20T12:01:30.300Z,27.01
2023-02-20T12:02:29.493Z,27.14
2023-02-20T12:03:30.217Z,27.15
2023-02-20T12:04:29.357Z,27.15
2023-02-20T12:05:29.422Z,27.21
2023-02-20T12:06:29.202Z,27.20
2023-02-20T12:07:29.170Z,27.24
2023-02-20T12:08:29.062Z,27.25
2023-02-20T12:09:28.970Z,27.28
2023-02-20T12:10:28.955Z,27.27
2023-02-20T12:11:28.838Z,27.31
2023-02-20T12:12:28.761Z,27.35
2023-02-20T12:13:28.727Z,27.37
2023-02-20T12:14:28.624Z,27.35
2023-02-20T12:15:28.555Z,27.37
2023-02-20T12:16:28.497Z,27.38
2023-02-20T12:17:28.424Z,27.42
2023-02-20T12:18:28.301Z,27.42
2023-02-20T12:19:28.231Z,27.45
2023-02-20T12:20:28.320Z,27.49
2023-02-20T12:21:28.083Z,27.58
2023-02-20T12:22:28.015Z,27.65
2023-02-20T12:23:27.929Z,27.69
2023-02-20T12:24:27.850Z,27.72
2023-02-20T12:25:27.824Z,27.73
2023-02-20T12:26:27.729Z,27.66
2023-02-20T12:27:27.883Z,27.73
2023-02-20T12:28:27.611Z,27.75
2023-02-20T12:29:27.662Z,27.72
2023-02-20T12:30:27.808Z,27.72
2023-02-20T12:31:30.344Z,27.69
2023-02-20T12:32:28.230Z,27.66
2023-02-20T12:33:27.167Z,27.62
2023-02-20T12:34:27.120Z,27.56
2023-02-20T12:35:27.016Z,27.49
2023-02-20T12:36:26.923Z,27.52
2023-02-20T12:37:26.829Z,27.48
2023-02-20T12:38:26.819Z,27.44
2023-02-20T12:39:26.696Z,27.41
2023-02-20T12:40:26.581Z,27.39
2023-02-20T12:41:26.535Z,27.35
2023-02-20T12:42:26.496Z,27.31
2023-02-20T12:43:26.387Z,27.31
2023-02-20T12:44:26.287Z,27.31
2023-02-20T12:45:26.211Z,27.27
2023-02-20T12:46:26.139Z,27.25
2023-02-20T12:47:26.035Z,27.24
2023-02-20T12:48:25.944Z,27.25
2023-02-20T12:49:25.864Z,27.17
2023-02-20T12:50:25.804Z,27.08
2023-02-20T12:51:25.750Z,27.10
2023-02-20T12:52:25.766Z,27.13
2023-02-20T12:53:25.589Z,27.10
2023-02-20T12:54:25.532Z,27.10
2023-02-20T12:55:25.458Z,27.10
2023-02-20T12:56:25.359Z,27.10
2023-02-20T12:57:25.271Z,27.04
2023-02-20T12:58:25.212Z,27.04
2023-02-20T12:59:25.126Z,27.08
2023-02-20T13:00:25.022Z,27.01
2023-02-20T13:01:38.374Z,27.05
2023-02-20T13:02:40.596Z,27.07
2023-02-20T13:03:25.798Z,27.07
2023-02-20T13:04:24.698Z,27.04
2023-02-20T13:05:24.621Z,27.03
2023-02-20T13:06:24.687Z,27.04
2023-02-20T13:07:24.464Z,26.97
2023-02-20T13:08:24.419Z,26.97
2023-02-20T13:09:24.386Z,27.00
2023-02-20T13:10:24.270Z,26.91
2023-02-20T13:11:24.277Z,26.96
2023-02-20T13:12:24.082Z,26.94
2023-02-20T13:13:24.050Z,26.91
2023-02-20T13:14:23.929Z,26.93
2023-02-20T13:15:24.742Z,26.94
2023-02-20T13:16:23.839Z,27.00
2023-02-20T13:17:23.701Z,26.97
2023-02-20T13:18:23.657Z,27.03
2023-02-20T13:19:23.556Z,27.04
2023-02-20T13:20:23.516Z,27.05
2023-02-20T13:21:23.423Z,27.03
2023-02-20T13:22:23.379Z,27.05
2023-02-20T13:23:23.331Z,27.10
2023-02-20T13:24:23.191Z,27.07
2023-02-20T13:25:23.762Z,27.07
2023-02-20T13:26:23.055Z,27.08
2023-02-20T13:27:23.006Z,27.11
2023-02-20T13:28:23.738Z,27.13
2023-02-20T13:29:23.364Z,27.11
2023-02-20T13:30:22.776Z,27.15
2023-02-20T13:31:22.801Z,27.13
2023-02-20T13:32:22.635Z,27.14
2023-02-20T13:33:22.491Z,27.13
2023-02-20T13:34:22.490Z,27.13
2023-02-20T13:35:22.344Z,27.13
2023-02-20T13:36:22.282Z,27.14
2023-02-20T13:37:22.189Z,27.13
2023-02-20T13:38:22.110Z,27.14
2023-02-20T13:39:21.987Z,27.14
2023-02-20T13:40:21.904Z,27.13
2023-02-20T13:41:21.852Z,27.14
2023-02-20T13:42:21.776Z,27.08
2023-02-20T13:43:21.717Z,27.08
2023-02-20T13:44:21.587Z,27.07
2023-02-20T13:45:21.541Z,27.11
2023-02-20T13:46:21.461Z,27.14
2023-02-20T13:47:27.791Z,27.14
2023-02-20T13:48:22.315Z,27.13
2023-02-20T13:49:21.242Z,27.15
2023-02-20T13:50:21.140Z,27.20
2023-02-20T13:51:21.099Z,27.17
2023-02-20T13:52:20.953Z,27.18
2023-02-20T13:53:20.928Z,27.21
2023-02-20T13:54:20.812Z,27.24
2023-02-20T13:55:20.763Z,27.24
2023-02-20T13:56:20.673Z,27.24
2023-02-20T13:57:20.596Z,27.24
2023-02-20T13:58:23.064Z,27.27
2023-02-20T13:59:20.417Z,27.27
2023-02-20T14:00:20.345Z,27.27
2023-02-20T14:01:20.320Z,27.27
2023-02-20T14:02:20.240Z,27.31
2023-02-20T14:03:20.113Z,27.30
2023-02-20T14:04:20.055Z,27.30
2023-02-20T14:05:19.908Z,27.31
2023-02-20T14:06:19.807Z,27.32
2023-02-20T14:07:19.774Z,27.37
2023-02-20T14:08:19.677Z,27.35
2023-02-20T14:09:19.622Z,27.37
2023-02-20T14:10:19.552Z,27.38
2023-02-20T14:11:19.434Z,27.35
2023-02-20T14:12:19.372Z,27.37
2023-02-20T14:13:23.036Z,27.38
2023-02-20T14:14:20.204Z,27.42
2023-02-20T14:15:19.103Z,27.35
2023-02-20T14:16:19.007Z,27.37
2023-02-20T14:17:18.920Z,27.39
2023-02-20T14:18:18.866Z,27.37
2023-02-20T14:19:18.766Z,27.41
2023-02-20T14:20:18.685Z,27.41
2023-02-20T14:21:19.274Z,27.42
2023-02-20T14:22:18.481Z,27.42
2023-02-20T14:23:18.406Z,27.44
2023-02-20T14:24:18.317Z,27.45
2023-02-20T14:25:18.248Z,27.45
2023-02-20T14:26:18.197Z,27.44
2023-02-20T14:27:18.057Z,27.45
2023-02-20T14:28:18.037Z,27.46
2023-02-20T14:29:17.883Z,27.44
2023-02-20T14:30:17.875Z,27.44
2023-02-20T14:31:17.727Z,27.45
2023-02-20T14:32:17.727Z,27.44
2023-02-20T14:33:17.605Z,27.42
2023-02-20T14:34:17.479Z,27.45
2023-02-20T14:35:17.399Z,27.42
2023-02-20T14:36:17.349Z,27.41
2023-02-20T14:37:17.240Z,27.45
2023-02-20T14:38:17.203Z,27.46
2023-02-20T14:39:17.110Z,27.45
2023-02-20T14:40:17.021Z,27.46
2023-02-20T14:41:16.989Z,27.45
2023-02-20T14:42:16.863Z,27.44
2023-02-20T14:43:16.829Z,27.42
2023-02-20T14:44:16.731Z,27.45
2023-02-20T14:45:16.633Z,27.46
2023-02-20T14:46:16.655Z,27.41
2023-02-20T14:47:16.507Z,27.39
2023-02-20T14:48:16.415Z,27.45
2023-02-20T14:49:16.361Z,27.48
2023-02-20T14:50:16.237Z,27.44
2023-02-20T14:51:16.191Z,27.48
2023-02-20T14:52:16.082Z,27.44
2023-02-20T14:53:16.053Z,27.45
2023-02-20T14:54:15.935Z,27.42
2023-02-20T14:55:15.840Z,27.44
2023-02-20T14:56:15.932Z,27.41
2023-02-20T14:57:15.716Z,27.46
2023-02-20T14:58:15.595Z,27.42
2023-02-20T14:59:15.522Z,27.44
2023-02-20T15:00:15.452Z,27.38
2023-02-20T15:01:15.445Z,27.38
2023-02-20T15:02:24.273Z,27.38
2023-02-20T15:03:29.391Z,27.39
2023-02-20T15:04:16.167Z,27.39
2023-02-20T15:05:15.077Z,27.34
2023-02-20T15:06:15.327Z,27.35
2023-02-20T15:07:14.960Z,27.35
2023-02-20T15:08:14.876Z,27.34
2023-02-20T15:09:22.532Z,27.31
2023-02-20T15:10:15.681Z,27.30
2023-02-20T15:11:14.595Z,27.28
2023-02-20T15:12:14.503Z,27.28
2023-02-20T15:13:14.417Z,27.27
2023-02-20T15:14:14.389Z,27.30
2023-02-20T15:15:14.257Z,27.30
2023-02-20T15:16:14.609Z,27.30
2023-02-20T15:17:14.157Z,27.28
2023-02-20T15:18:14.087Z,27.25
2023-02-20T15:19:13.947Z,27.28
2023-02-20T15:20:13.865Z,27.25
2023-02-20T15:21:13.797Z,27.22
2023-02-20T15:22:13.714Z,27.22
2023-02-20T15:23:15.565Z,27.21
2023-02-20T15:24:13.581Z,27.22
2023-02-20T15:25:13.460Z,27.24
2023-02-20T15:26:13.648Z,27.18
2023-02-20T15:27:13.343Z,27.21
2023-02-20T15:28:13.241Z,27.20
2023-02-20T15:29:13.180Z,27.22
2023-02-20T15:30:13.101Z,27.18
2023-02-20T15:31:13.035Z,27.17
2023-02-20T15:32:12.974Z,27.18
2023-02-20T15:33:12.846Z,27.18
2023-02-20T15:34:12.814Z,27.21
2023-02-20T15:35:12.684Z,27.18
2023-02-20T15:36:12.779Z,27.18
2023-02-20T15:37:12.564Z,27.18
2023-02-20T15:38:12.473Z,27.18
2023-02-20T15:39:12.437Z,27.14
2023-02-20T15:40:12.323Z,27.14
2023-02-20T15:41:12.577Z,27.11
2023-02-20T15:42:12.328Z,27.11
2023-02-20T15:43:24.017Z,27.08
2023-02-20T15:44:13.008Z,27.10
2023-02-20T15:45:11.962Z,27.13
2023-02-20T15:46:12.338Z,27.10
2023-02-20T15:47:11.807Z,27.10
2023-02-20T15:48:11.723Z,27.10
2023-02-20T15:49:19.322Z,27.10
2023-02-20T15:50:12.543Z,27.11
2023-02-20T15:51:11.753Z,27.05
2023-02-20T15:52:11.393Z,27.07
2023-02-20T15:53:11.437Z,27.08
2023-02-20T15:54:11.247Z,27.08
2023-02-20T15:55:11.207Z,27.04
2023-02-20T15:56:11.274Z,27.05
2023-02-20T15:57:11.050Z,27.01
2023-02-20T15:58:14.055Z,27.05
2023-02-20T15:59:11.897Z,27.00
2023-02-20T16:00:10.838Z,27.01
2023-02-20T16:01:10.818Z,27.03
2023-02-20T16:02:10.748Z,27.01
2023-02-20T16:03:10.646Z,27.00
2023-02-20T16:04:10.537Z,27.04
2023-02-20T16:05:10.486Z,27.00
2023-02-20T16:06:10.434Z,26.98
2023-02-20T16:07:10.608Z,27.01
2023-02-20T16:08:10.257Z,26.98
2023-02-20T16:09:10.182Z,26.97
2023-02-20T16:10:10.111Z,26.94
2023-02-20T16:11:10.040Z,26.94
2023-02-20T16:12:09.971Z,26.94
2023-02-20T16:13:09.881Z,26.94
2023-02-20T16:14:09.804Z,26.96
2023-02-20T16:15:09.740Z,26.96
2023-02-20T16:16:18.375Z,26.94
2023-02-20T16:17:10.604Z,26.96
2023-02-20T16:18:09.512Z,26.90
2023-02-20T16:19:09.426Z,26.94
2023-02-20T16:20:09.384Z,26.93
2023-02-20T16:21:09.389Z,26.96
2023-02-20T16:22:09.205Z,26.93
2023-02-20T16:23:09.119Z,26.93
2023-02-20T16:24:09.081Z,26.93
2023-02-20T16:25:09.000Z,26.93
2023-02-20T16:26:08.946Z,26.90
2023-02-20T16:27:21.661Z,26.91
2023-02-20T16:28:09.753Z,26.90
2023-02-20T16:29:08.667Z,26.90
2023-02-20T16:30:08.658Z,26.96
2023-02-20T16:31:08.638Z,26.91
2023-02-20T16:32:08.537Z,26.89
2023-02-20T16:33:08.388Z,26.87
2023-02-20T16:34:20.253Z,26.86
2023-02-20T16:35:09.249Z,26.86
2023-02-20T16:36:13.768Z,26.84
2023-02-20T16:37:09.105Z,26.86
2023-02-20T16:38:08.006Z,26.83
2023-02-20T16:39:10.340Z,26.84
2023-02-20T16:40:07.878Z,26.86
2023-02-20T16:41:07.853Z,26.86
2023-02-20T16:42:07.705Z,26.84
2023-02-20T16:43:07.663Z,26.84
2023-02-20T16:44:07.607Z,26.84
2023-02-20T16:45:07.505Z,26.83
2023-02-20T16:46:07.489Z,26.82
2023-02-20T16:47:10.019Z,26.83
2023-02-20T16:48:07.284Z,26.82
2023-02-20T16:49:07.207Z,26.82
2023-02-20T16:50:07.143Z,26.80
2023-02-20T16:51:07.079Z,26.83
2023-02-20T16:52:06.979Z,26.82
2023-02-20T16:53:06.902Z,26.82
2023-02-20T16:54:06.870Z,26.80
2023-02-20T16:55:06.785Z,26.80
2023-02-20T16:56:06.714Z,26.80
2023-02-20T16:57:06.653Z,26.79
2023-02-20T16:58:06.580Z,26.79
2023-02-20T16:59:06.501Z,26.77
2023-02-20T17:00:06.435Z,26.77
2023-02-20T17:01:06.418Z,26.80
2023-02-20T17:02:06.450Z,26.76
2023-02-20T17:03:06.242Z,26.76
2023-02-20T17:04:06.170Z,26.76
2023-02-20T17:05:06.227Z,26.76
2023-02-20T17:06:06.021Z,26.76
2023-02-20T17:07:08.799Z,26.77
2023-02-20T17:08:05.880Z,26.75
2023-02-20T17:09:05.791Z,26.73
2023-02-20T17:10:05.710Z,26.75
2023-02-20T17:11:05.665Z,26.75
2023-02-20T17:12:05.591Z,26.72
2023-02-20T17:13:05.506Z,26.72
2023-02-20T17:14:05.469Z,26.72
2023-02-20T17:15:05.373Z,26.70
2023-02-20T17:16:05.344Z,26.70
2023-02-20T17:17:05.273Z,26.69
2023-02-20T17:18:05.175Z,26.69
2023-02-20T17:19:05.099Z,26.72
2023-02-20T17:20:05.018Z,26.70
2023-02-20T17:21:04.973Z,26.69
2023-02-20T17:22:04.904Z,26.69
2023-02-20T17:23:05.496Z,26.64
2023-02-20T17:24:04.743Z,26.66
2023-02-20T17:25:04.673Z,26.63
2023-02-20T17:26:04.592Z,26.67
2023-02-20T17:27:04.583Z,26.64
2023-02-20T17:28:04.472Z,26.63